Time;durP1;ratioP1;P1;durP2;ratioP2;P2;SDS_P1;SDS_P2;PMS_P1;PMS_P2;Temp;Humidity;BMP_temperature;BMP_pressure;BME280_temperature;BME280_humidity;BME280_pressure;Samples;Min_cycle;Max_cycle;Signal;HPM_P1;HPM_P2
2022/04/03 00:00:01;;;;;;;8.45;2.90;;;;;;;-1.39;48.64;100636.02;1776673;78;33184;-65
2022/04/03 00:02:27;;;;;;;8.73;3.55;;;;;;;-1.43;48.71;100642.12;1784458;78;98500;-65
2022/04/03 00:04:53;;;;;;;10.72;3.98;;;;;;;-1.48;49.27;100639.91;1779964;78;35233;-65
2022/04/03 00:07:21;;;;;;;11.12;3.95;;;;;;;-1.52;49.88;100646.90;1787545;78;32517;-65
2022/04/03 00:09:47;;;;;;;6.67;2.72;;;;;;;-1.60;50.01;100645.98;1781374;78;98449;-67
2022/04/03 00:12:14;;;;;;;9.80;3.15;;;;;;;-1.66;50.04;100638.94;1781833;79;33898;-66
2022/04/03 00:14:40;;;;;;;9.95;2.67;;;;;;;-1.69;51.16;100649.43;1786771;78;98487;-66
2022/04/03 00:17:07;;;;;;;10.58;3.47;;;;;;;-1.75;51.59;100641.94;1788805;78;35411;-66
2022/04/03 00:19:33;;;;;;;7.40;3.40;;;;;;;-1.80;51.24;100643.22;1777384;79;99211;-66
2022/04/03 00:22:03;;;;;;;8.23;3.10;;;;;;;-1.82;51.26;100646.71;1788440;79;27493;-65
2022/04/03 00:24:31;;;;;;;9.43;3.37;;;;;;;-1.84;51.72;100637.94;1784172;78;25802;-65
2022/04/03 00:26:56;;;;;;;10.50;2.92;;;;;;;-1.88;51.45;100640.09;1780108;79;98490;-65
2022/04/03 00:29:23;;;;;;;11.12;3.67;;;;;;;-1.89;51.44;100633.09;1781910;78;34875;-65
2022/04/03 00:31:49;;;;;;;10.68;3.55;;;;;;;-1.93;51.90;100636.56;1786209;79;98880;-65
2022/04/03 00:34:16;;;;;;;8.15;2.77;;;;;;;-1.94;52.68;100633.49;1783593;79;27476;-65
2022/04/03 00:36:42;;;;;;;11.48;3.05;;;;;;;-1.94;53.25;100636.12;1784141;78;25773;-65
2022/04/03 00:39:08;;;;;;;8.98;3.33;;;;;;;-1.93;53.42;100635.25;1786421;78;98710;-65
2022/04/03 00:41:36;;;;;;;6.47;2.35;;;;;;;-1.94;53.58;100634.80;1784323;79;35047;-66
2022/04/03 00:44:05;;;;;;;9.38;3.10;;;;;;;-1.94;54.05;100636.12;1782333;79;98576;-65
2022/04/03 00:46:33;;;;;;;5.42;2.33;;;;;;;-1.93;54.90;100640.50;1781685;79;27411;-65
2022/04/03 00:49:00;;;;;;;6.83;3.42;;;;;;;-1.96;54.90;100636.98;1785527;78;25744;-65
2022/04/03 00:51:28;;;;;;;4.83;2.25;;;;;;;-1.96;54.82;100628.23;1787713;78;98444;-65
2022/04/03 00:53:54;;;;;;;6.42;3.40;;;;;;;-1.98;54.75;100633.91;1786773;79;26005;-65
2022/04/03 00:56:21;;;;;;;8.05;2.47;;;;;;;-1.98;54.80;100633.91;1783427;78;98556;-66
2022/04/03 00:58:49;;;;;;;12.60;2.95;;;;;;;-1.99;55.00;100642.66;1788690;78;27472;-66
2022/04/03 01:01:17;;;;;;;8.08;4.05;;;;;;;-2.00;55.12;100636.52;1782216;78;25813;-65
2022/04/03 01:03:43;;;;;;;6.70;3.30;;;;;;;-2.01;55.68;100632.56;1748815;80;98273;-68
2022/04/03 01:06:09;;;;;;;7.70;3.27;;;;;;;-2.07;55.74;100625.95;1736504;82;34835;-65
2022/04/03 01:08:37;;;;;;;5.70;2.90;;;;;;;-2.05;56.29;100629.47;1734928;81;98509;-66
2022/04/03 01:11:04;;;;;;;13.03;3.80;;;;;;;-2.09;56.28;100635.57;1738191;81;27472;-65
2022/04/03 01:13:30;;;;;;;7.35;2.95;;;;;;;-2.10;56.96;100640.37;1709741;81;98805;-65
2022/04/03 01:15:59;;;;;;;8.08;3.05;;;;;;;-2.13;56.77;100627.22;1714028;82;25772;-65
2022/04/03 01:18:28;;;;;;;9.15;3.30;;;;;;;-2.18;57.09;100631.13;1713715;82;25950;-65
2022/04/03 01:20:54;;;;;;;6.72;2.72;;;;;;;-2.22;56.97;100635.91;1714977;82;98543;-65
2022/04/03 01:23:23;;;;;;;9.13;3.40;;;;;;;-2.23;57.15;100643.77;1712643;82;29492;-67
2022/04/03 01:25:49;;;;;;;5.45;2.62;;;;;;;-2.26;57.17;100643.74;1752215;80;98718;-66
2022/04/03 01:28:15;;;;;;;9.75;2.85;;;;;;;-2.30;57.56;100635.84;1747109;80;30414;-67
2022/04/03 01:30:42;;;;;;;10.63;3.45;;;;;;;-2.34;57.56;100644.56;1746456;80;25868;-66
2022/04/03 01:33:12;;;;;;;7.30;2.47;;;;;;;-2.35;58.28;100640.17;1740363;80;98808;-66
2022/04/03 01:35:38;;;;;;;5.92;2.60;;;;;;;-2.38;58.76;100645.83;1743027;80;27364;-66
2022/04/03 01:38:06;;;;;;;11.25;3.27;;;;;;;-2.43;58.45;100648.84;1744653;80;98681;-66
2022/04/03 01:40:35;;;;;;;9.15;3.00;;;;;;;-2.47;58.28;100644.44;1742612;80;25932;-66
2022/04/03 01:43:04;;;;;;;7.55;2.75;;;;;;;-2.51;58.05;100652.71;1745917;80;26309;-66
2022/04/03 01:45:31;;;;;;;10.20;3.35;;;;;;;-2.54;58.54;100653.99;1702574;82;98630;-65
2022/04/03 01:47:57;;;;;;;8.28;3.20;;;;;;;-2.54;58.86;100655.30;1717865;81;27434;-65
2022/04/03 01:50:22;;;;;;;7.62;2.90;;;;;;;-2.55;59.00;100660.11;1712456;82;98447;-65
2022/04/03 01:52:48;;;;;;;5.75;2.40;;;;;;;-2.55;58.97;100656.60;1712335;82;30768;-65
2022/04/03 01:55:15;;;;;;;7.15;3.10;;;;;;;-2.58;59.63;100661.39;1717144;82;34914;-65
2022/04/03 01:57:41;;;;;;;11.35;5.37;;;;;;;-2.63;59.17;100660.06;1744399;80;98230;-65
2022/04/03 02:00:10;;;;;;;10.32;3.67;;;;;;;-2.66;59.11;100663.97;1743264;80;27435;-66
2022/04/03 02:02:38;;;;;;;9.33;3.80;;;;;;;-2.67;59.16;100660.02;1730843;80;98752;-64
2022/04/03 02:05:07;;;;;;;9.53;3.87;;;;;;;-2.69;59.56;100668.30;1692170;82;25777;-65
2022/04/03 02:07:33;;;;;;;11.70;3.70;;;;;;;-2.73;59.76;100665.20;1704899;82;98987;-65
2022/04/03 02:10:08;;;;;;;11.35;4.53;;;;;;;-2.76;59.40;100667.79;1708267;82;26405;-63
2022/04/03 02:12:33;;;;;;;7.53;3.65;;;;;;;-2.79;59.80;100668.63;1705936;82;27461;-66
2022/04/03 02:14:59;;;;;;;6.72;3.15;;;;;;;-2.80;59.85;100672.55;1733518;81;99145;-64
2022/04/03 02:17:26;;;;;;;8.60;4.05;;;;;;;-2.83;59.66;100664.22;1784359;79;30400;-65
2022/04/03 02:19:52;;;;;;;12.07;4.05;;;;;;;-2.84;59.75;100670.33;1779251;78;99348;-66
2022/04/03 02:22:17;;;;;;;11.40;4.45;;;;;;;-2.87;59.68;100674.66;1783000;79;33265;-64
2022/04/03 02:24:43;;;;;;;16.02;3.95;;;;;;;-2.98;59.73;100658.37;1780716;79;27401;-64
2022/04/03 02:27:11;;;;;;;10.03;3.65;;;;;;;-2.90;59.62;100675.93;1782676;78;99016;-65
2022/04/03 02:29:37;;;;;;;8.55;4.03;;;;;;;-2.93;59.63;100682.45;1782659;79;25734;-65
2022/04/03 02:32:06;;;;;;;13.13;3.62;;;;;;;-2.97;59.78;100671.93;1785863;79;101055;-64
2022/04/03 02:34:32;;;;;;;12.30;3.95;;;;;;;-3.00;59.99;100678.45;1782106;78;25701;-65
2022/04/03 02:37:00;;;;;;;12.03;3.75;;;;;;;-3.04;60.42;100679.27;1781252;79;27493;-65
2022/04/03 02:39:26;;;;;;;10.98;3.50;;;;;;;-3.07;60.24;100683.59;1781202;78;98923;-64
2022/04/03 02:41:52;;;;;;;7.83;3.20;;;;;;;-3.09;60.21;100680.95;1786420;78;30433;-65
2022/04/03 02:44:18;;;;;;;9.50;2.67;;;;;;;-3.10;60.36;100684.44;1787604;78;98767;-65
2022/04/03 02:46:46;;;;;;;9.23;5.03;;;;;;;-3.11;61.03;100679.17;1785551;78;26117;-65
2022/04/03 02:49:11;;;;;;;12.25;2.70;;;;;;;-3.13;60.96;100684.41;1781356;79;26621;-65
2022/04/03 02:51:42;;;;;;;13.20;4.75;;;;;;;-3.16;61.52;100684.80;1781098;78;98881;-65
2022/04/03 02:54:08;;;;;;;8.78;3.25;;;;;;;-3.20;61.32;100685.19;1786204;78;25341;-65
2022/04/03 02:56:33;;;;;;;6.25;2.77;;;;;;;-3.21;61.44;100689.09;1785071;79;98682;-65
2022/04/03 02:58:59;;;;;;;9.83;3.20;;;;;;;-3.23;61.32;100700.88;1780927;78;32585;-64
2022/04/03 03:01:25;;;;;;;7.03;3.58;;;;;;;-3.25;61.31;100686.87;1782325;79;98885;-65
2022/04/03 03:03:51;;;;;;;8.18;3.08;;;;;;;-3.26;61.75;100707.39;1789584;79;33255;-65
2022/04/03 03:06:19;;;;;;;7.20;3.35;;;;;;;-3.28;62.09;100690.33;1783364;78;32932;-64
2022/04/03 03:08:45;;;;;;;7.58;3.20;;;;;;;-3.29;62.04;100699.48;1781161;79;98813;-66
2022/04/03 03:11:12;;;;;;;9.70;3.47;;;;;;;-3.33;62.02;100695.94;1780106;78;32396;-65
2022/04/03 03:13:40;;;;;;;8.48;3.30;;;;;;;-3.34;62.25;100690.25;1785295;78;98836;-65
2022/04/03 03:16:06;;;;;;;8.90;3.70;;;;;;;-3.36;62.26;100687.16;1781407;79;25876;-65
2022/04/03 03:18:32;;;;;;;7.92;4.28;;;;;;;-3.37;62.26;100695.45;1782923;79;25798;-65
2022/04/03 03:20:59;;;;;;;9.25;3.60;;;;;;;-3.37;62.21;100691.52;1786726;78;98642;-65
2022/04/03 03:23:25;;;;;;;9.30;3.17;;;;;;;-3.36;62.26;100689.78;1785340;78;26194;-65
2022/04/03 03:25:52;;;;;;;10.53;3.33;;;;;;;-3.37;62.39;100688.02;1729447;81;99099;-65
2022/04/03 03:28:18;;;;;;;6.15;3.30;;;;;;;-3.37;62.37;100698.50;1786979;79;25773;-65
2022/04/03 03:30:45;;;;;;;6.03;3.20;;;;;;;-3.39;62.35;100688.42;1787002;78;25850;-66
2022/04/03 03:33:12;;;;;;;7.00;3.30;;;;;;;-3.38;62.36;100696.73;1780287;78;98724;-66
2022/04/03 03:35:37;;;;;;;5.37;2.80;;;;;;;-3.40;62.47;100701.95;1783921;79;26290;-65
2022/04/03 03:38:04;;;;;;;8.38;3.62;;;;;;;-3.39;62.91;100702.41;1781951;79;100036;-66
2022/04/03 03:40:30;;;;;;;7.03;3.27;;;;;;;-3.40;62.67;100702.39;1778956;78;25576;-64
2022/04/03 03:42:56;;;;;;;12.20;4.03;;;;;;;-3.40;62.67;100699.77;1782548;79;30708;-65
2022/04/03 03:45:22;;;;;;;6.95;2.75;;;;;;;-3.37;62.62;100707.67;1780412;79;98849;-66
2022/04/03 03:47:48;;;;;;;11.68;3.75;;;;;;;-3.37;62.59;100703.73;1777962;78;25749;-65
2022/04/03 03:50:18;;;;;;;7.22;3.70;;;;;;;-3.35;62.58;100703.33;1776625;79;98940;-65
2022/04/03 03:52:43;;;;;;;9.53;3.35;;;;;;;-3.35;62.65;100708.14;1781028;78;27186;-65
2022/04/03 03:55:11;;;;;;;10.72;3.42;;;;;;;-3.34;62.54;100715.14;1781730;78;25301;-65
2022/04/03 03:57:38;;;;;;;5.90;3.27;;;;;;;-3.35;62.54;100717.74;1776787;78;97893;-65
2022/04/03 04:00:09;;;;;;;11.03;4.00;;;;;;;-3.35;62.47;100713.38;1781591;78;25732;-66
2022/04/03 04:02:36;;;;;;;10.05;3.25;;;;;;;-3.34;62.52;100723.00;1784195;79;99008;-66
2022/04/03 04:05:05;;;;;;;8.00;3.15;;;;;;;-3.35;62.50;100717.74;1785286;78;25787;-64
2022/04/03 04:07:43;;;;;;;6.30;2.70;;;;;;;-3.36;62.46;100724.73;1784353;79;98917;-65
2022/04/03 04:10:15;;;;;;;9.33;2.85;;;;;;;-3.36;62.47;100726.46;1783291;79;25774;-66
2022/04/03 04:12:44;;;;;;;9.45;3.00;;;;;;;-3.37;62.62;100722.97;1780054;78;26343;-64
2022/04/03 04:15:15;;;;;;;7.62;2.95;;;;;;;-3.37;62.52;100728.20;1784283;78;98691;-66
2022/04/03 04:17:45;;;;;;;8.87;3.33;;;;;;;-3.32;62.39;100725.22;1779985;79;25722;-66
2022/04/03 04:20:18;;;;;;;6.75;2.75;;;;;;;-3.32;62.39;100725.22;1779420;78;99623;-64
2022/04/03 04:22:48;;;;;;;10.40;2.80;;;;;;;-3.29;62.42;100726.57;1784476;79;26345;-64
2022/04/03 04:25:16;;;;;;;7.15;3.30;;;;;;;-3.25;62.40;100727.92;1787537;78;26012;-64
2022/04/03 04:27:44;;;;;;;9.25;3.30;;;;;;;-3.21;62.36;100735.84;1779725;78;98430;-65
2022/04/03 04:30:11;;;;;;;7.62;2.70;;;;;;;-3.20;62.35;100731.48;1784355;79;26397;-65
2022/04/03 04:32:40;;;;;;;7.92;2.87;;;;;;;-3.18;62.49;100733.27;1782003;78;98776;-65
2022/04/03 04:35:08;;;;;;;7.75;4.03;;;;;;;-3.17;62.55;100727.17;1787545;80;25928;-65
2022/04/03 04:37:34;;;;;;;8.33;3.60;;;;;;;-3.16;62.65;100728.05;1783313;79;98832;-64
2022/04/03 04:40:01;;;;;;;11.28;3.50;;;;;;;-3.16;62.51;100731.98;1787271;78;25948;-65
2022/04/03 04:42:28;;;;;;;12.60;3.40;;;;;;;-3.16;62.47;100736.80;1785603;79;25683;-65
2022/04/03 04:44:55;;;;;;;7.45;2.87;;;;;;;-3.15;62.45;100738.55;1787206;78;98975;-65
2022/04/03 04:47:23;;;;;;;8.20;2.83;;;;;;;-3.15;62.44;100735.94;1781801;78;25809;-65
2022/04/03 04:49:52;;;;;;;5.83;3.20;;;;;;;-3.17;62.44;100742.89;1776386;79;98944;-65
2022/04/03 04:52:18;;;;;;;6.95;3.52;;;;;;;-3.18;62.46;100742.88;1779502;79;27417;-65
2022/04/03 04:54:45;;;;;;;8.95;3.55;;;;;;;-3.17;62.43;100748.56;1783253;79;33202;-65
2022/04/03 04:57:10;;;;;;;8.08;3.12;;;;;;;-3.18;62.45;100742.88;1781956;79;98623;-67
2022/04/03 04:59:36;;;;;;;8.30;3.47;;;;;;;-3.19;62.37;100744.62;1790747;78;34818;-65
2022/04/03 05:02:05;;;;;;;13.93;3.90;;;;;;;-3.19;62.33;100745.05;1783155;78;98900;-65
2022/04/03 05:04:31;;;;;;;12.23;3.10;;;;;;;-3.22;62.65;100756.37;1783136;78;27426;-65
2022/04/03 05:06:59;;;;;;;11.97;4.47;;;;;;;-3.26;62.73;100757.19;1776282;78;26539;-66
2022/04/03 05:09:25;;;;;;;12.03;3.50;;;;;;;-3.28;62.69;100763.72;1789420;79;98940;-66
2022/04/03 05:11:51;;;;;;;7.67;3.60;;;;;;;-3.31;62.76;100764.10;1784563;78;25734;-66
2022/04/03 05:14:18;;;;;;;7.53;3.40;;;;;;;-3.31;62.62;100760.17;1783401;79;98758;-65
2022/04/03 05:16:45;;;;;;;11.25;4.33;;;;;;;-3.31;62.63;100766.72;1782689;79;27404;-65
2022/04/03 05:19:13;;;;;;;10.50;3.83;;;;;;;-3.31;62.60;100768.91;1783044;79;25736;-65
2022/04/03 05:21:42;;;;;;;12.07;3.98;;;;;;;-3.30;62.60;100771.11;1781207;79;98781;-66
2022/04/03 05:24:08;;;;;;;8.40;3.80;;;;;;;-3.30;62.60;100769.80;1778798;78;27844;-66
2022/04/03 05:26:38;;;;;;;7.42;3.65;;;;;;;-3.28;62.51;100774.62;1782248;78;98707;-65
2022/04/03 05:29:07;;;;;;;13.70;3.47;;;;;;;-3.28;62.54;100774.20;1733517;81;26404;-65
2022/04/03 05:31:33;;;;;;;10.32;3.58;;;;;;;-3.28;62.72;100770.70;1783730;79;98937;-66
2022/04/03 05:34:06;;;;;;;9.55;3.80;;;;;;;-3.27;62.77;100777.70;1781560;80;26635;-66
2022/04/03 05:36:32;;;;;;;8.03;3.30;;;;;;;-3.31;62.67;100769.34;1749054;81;25897;-65
2022/04/03 05:38:57;;;;;;;9.90;3.25;;;;;;;-3.17;62.63;100784.84;1733678;80;98760;-66
2022/04/03 05:41:23;;;;;;;11.60;3.83;;;;;;;-3.12;62.61;100781.85;1784955;80;27390;-65
2022/04/03 05:43:52;;;;;;;9.03;3.75;;;;;;;-3.04;62.59;100785.47;1780738;79;99129;-66
2022/04/03 05:46:18;;;;;;;8.35;3.80;;;;;;;-2.98;62.59;100782.92;1779987;79;25838;-66
2022/04/03 05:48:45;;;;;;;8.45;3.47;;;;;;;-2.90;62.54;100783.03;1779077;79;34854;-66
2022/04/03 05:51:13;;;;;;;8.13;3.50;;;;;;;-2.80;62.51;100780.97;1778441;79;98805;-66
2022/04/03 05:53:41;;;;;;;9.53;3.52;;;;;;;-2.69;62.47;100794.23;1783788;79;27484;-66
2022/04/03 05:56:08;;;;;;;10.08;3.52;;;;;;;-2.62;62.44;100789.08;1717159;83;98976;-66
2022/04/03 05:58:34;;;;;;;6.65;3.20;;;;;;;-2.55;62.36;100797.87;1775359;79;26473;-66
2022/04/03 06:01:00;;;;;;;17.48;3.87;;;;;;;-2.49;62.34;100790.06;1784970;79;25780;-66
2022/04/03 06:03:26;;;;;;;10.23;4.15;;;;;;;-2.39;62.30;100795.88;1782136;79;98696;-66
2022/04/03 06:05:52;;;;;;;9.13;3.62;;;;;;;-2.32;62.22;100792.45;1786890;79;29490;-65
2022/04/03 06:08:18;;;;;;;7.92;3.37;;;;;;;-2.25;62.15;100793.83;1784253;79;98620;-66
2022/04/03 06:10:46;;;;;;;7.17;4.00;;;;;;;-2.16;62.15;100789.56;1781422;80;30838;-66
2022/04/03 06:13:15;;;;;;;5.58;3.02;;;;;;;-2.12;62.07;100795.30;1785486;79;25693;-65
2022/04/03 06:15:46;;;;;;;6.00;3.33;;;;;;;-2.00;62.06;100794.11;1748157;79;98518;-65
2022/04/03 06:18:16;;;;;;;15.80;4.08;;;;;;;-1.84;61.99;100796.44;1734454;80;27447;-66
2022/04/03 06:20:44;;;;;;;8.38;4.08;;;;;;;-1.72;61.89;100798.30;1741163;80;99055;-65
2022/04/03 06:23:16;;;;;;;10.25;3.60;;;;;;;-1.57;61.85;100790.98;1721519;82;25776;-66
2022/04/03 06:25:44;;;;;;;9.65;3.20;;;;;;;-1.39;61.83;100800.33;1710174;82;98944;-65
2022/04/03 06:28:10;;;;;;;6.62;3.62;;;;;;;-1.27;61.65;100800.84;1742619;80;26019;-66
2022/04/03 06:30:39;;;;;;;9.80;3.98;;;;;;;-1.13;61.62;100796.13;1741589;80;28352;-65
2022/04/03 06:33:07;;;;;;;6.25;3.00;;;;;;;-1.05;61.42;100798.38;1733716;80;98384;-65
2022/04/03 06:35:33;;;;;;;7.05;3.35;;;;;;;-0.96;61.40;100794.91;1707844;82;25858;-65
2022/04/03 06:37:59;;;;;;;8.25;3.52;;;;;;;-0.89;61.24;100798.03;1743053;80;98806;-65
2022/04/03 06:40:27;;;;;;;10.13;3.62;;;;;;;-0.75;61.21;100794.16;1738753;80;25737;-66
2022/04/03 06:42:57;;;;;;;13.70;3.30;;;;;;;-0.71;60.95;100803.38;1713984;82;27443;-66
2022/04/03 06:45:26;;;;;;;6.10;3.30;;;;;;;-0.64;60.92;100802.09;1742605;80;98587;-65
2022/04/03 06:47:52;;;;;;;8.38;3.70;;;;;;;-0.59;60.73;100800.36;1740945;80;26226;-65
2022/04/03 06:50:21;;;;;;;6.30;3.42;;;;;;;-0.45;60.79;100803.50;1732359;80;98512;-65
2022/04/03 06:52:47;;;;;;;6.70;2.77;;;;;;;-0.32;60.64;100808.38;1735102;80;25763;-65
2022/04/03 06:55:16;;;;;;;9.55;3.47;;;;;;;-0.23;60.50;100807.52;1740452;80;27475;-65
2022/04/03 06:57:45;;;;;;;7.00;2.83;;;;;;;-0.14;60.42;100807.11;1740268;80;98461;-65
2022/04/03 07:00:15;;;;;;;8.05;2.90;;;;;;;-0.11;60.22;100803.17;1743955;80;25685;-65
2022/04/03 07:02:42;;;;;;;5.65;2.75;;;;;;;-0.16;60.01;100809.30;1737503;80;98457;-66
2022/04/03 07:05:13;;;;;;;5.87;2.80;;;;;;;-0.17;59.91;100804.91;1693844;82;26464;-66
2022/04/03 07:07:38;;;;;;;8.35;3.33;;;;;;;-0.15;59.70;100805.80;1690742;83;99172;-66
2022/04/03 07:10:09;;;;;;;8.43;3.20;;;;;;;-0.10;59.60;100800.09;1737833;80;34475;-66
2022/04/03 07:12:40;;;;;;;5.97;2.98;;;;;;;0.04;59.70;100804.92;1738387;80;25888;-66
2022/04/03 07:15:11;;;;;;;8.00;3.25;;;;;;;0.17;59.46;100811.98;1763365;78;97567;-66
2022/04/03 07:17:38;;;;;;;5.62;2.77;;;;;;;0.22;59.22;100814.17;1782630;79;26123;-66
2022/04/03 07:20:08;;;;;;;7.50;2.75;;;;;;;0.18;58.92;100811.09;1785127;78;98567;-65
2022/04/03 07:22:36;;;;;;;6.33;3.37;;;;;;;0.17;58.82;100817.69;1742529;80;25981;-65
2022/04/03 07:25:03;;;;;;;5.20;3.08;;;;;;;0.26;58.90;100821.21;1738146;80;25706;-64
2022/04/03 07:27:32;;;;;;;7.20;3.22;;;;;;;0.40;58.75;100821.67;1736307;80;98288;-67
2022/04/03 07:29:59;;;;;;;6.65;2.80;;;;;;;0.38;58.45;100830.89;1786809;78;25781;-66
2022/04/03 07:32:26;;;;;;;9.43;2.90;;;;;;;0.33;58.10;100826.94;1770501;79;98337;-66
2022/04/03 07:34:52;;;;;;;6.37;3.27;;;;;;;0.32;58.16;100826.49;1717691;80;25761;-66
2022/04/03 07:37:18;;;;;;;6.20;3.40;;;;;;;0.37;58.05;100828.25;1737480;81;30953;-66
2022/04/03 07:39:47;;;;;;;6.75;2.98;;;;;;;0.47;58.14;100824.31;1721130;81;98372;-66
2022/04/03 07:42:16;;;;;;;8.33;3.02;;;;;;;0.61;58.02;100825.19;1733372;81;25821;-65
2022/04/03 07:44:42;;;;;;;11.33;3.47;;;;;;;0.67;57.81;100825.62;1723500;81;98362;-65
2022/04/03 07:47:11;;;;;;;12.63;3.40;;;;;;;0.67;57.60;100829.59;1782221;78;33311;-67
2022/04/03 07:49:37;;;;;;;4.00;2.47;;;;;;;0.72;57.51;100831.78;1782478;78;98790;-66
2022/04/03 07:52:07;;;;;;;6.47;3.17;;;;;;;0.72;57.14;100830.91;1786833;78;25880;-64
2022/04/03 07:54:33;;;;;;;14.40;2.63;;;;;;;0.75;57.21;100826.50;1786188;78;26251;-66
2022/04/03 07:56:59;;;;;;;6.92;3.25;;;;;;;0.77;57.08;100839.26;1786132;79;98454;-64
2022/04/03 07:59:27;;;;;;;6.20;2.87;;;;;;;0.76;56.90;100833.54;1783315;78;25697;-66
2022/04/03 08:01:56;;;;;;;8.38;3.30;;;;;;;0.76;56.72;100834.86;1783069;78;98537;-64
2022/04/03 08:04:21;;;;;;;7.58;3.12;;;;;;;0.74;56.51;100834.42;1784482;78;26463;-63
2022/04/03 08:06:47;;;;;;;6.78;2.67;;;;;;;0.81;56.49;100842.77;1784758;78;34042;-64
2022/04/03 08:09:16;;;;;;;7.17;2.93;;;;;;;0.91;56.40;100837.92;1786005;78;98472;-64
2022/04/03 08:11:42;;;;;;;6.78;2.83;;;;;;;1.03;56.13;100829.99;1776404;79;25914;-64
2022/04/03 08:14:11;;;;;;;8.45;2.58;;;;;;;1.15;56.09;100839.66;1783355;79;98485;-66
2022/04/03 08:16:37;;;;;;;7.87;2.12;;;;;;;1.25;55.77;100847.55;1780669;79;26084;-64
2022/04/03 08:19:03;;;;;;;4.37;2.35;;;;;;;1.33;55.59;100834.33;1772655;79;25788;-66
2022/04/03 08:21:30;;;;;;;6.17;2.72;;;;;;;1.42;55.48;100829.46;1775889;79;98404;-66
2022/04/03 08:23:59;;;;;;;5.90;2.37;;;;;;;1.52;55.47;100822.82;1773482;79;25793;-66
2022/04/03 08:26:26;;;;;;;6.72;2.87;;;;;;;1.58;55.27;100825.44;1776963;78;98415;-67
2022/04/03 08:28:55;;;;;;;3.75;1.85;;;;;;;1.74;55.23;100830.66;1774427;79;25862;-65
2022/04/03 08:31:23;;;;;;;6.00;1.70;;;;;;;1.86;54.74;100824.00;1770507;80;25744;-64
2022/04/03 08:33:51;;;;;;;2.37;1.35;;;;;;;1.92;53.95;100818.67;1751218;80;98970;-65
2022/04/03 08:36:17;;;;;;;3.60;1.57;;;;;;;1.98;52.31;100829.22;1724845;81;25741;-65
2022/04/03 08:38:45;;;;;;;4.35;1.50;;;;;;;2.09;52.95;100826.52;1723434;81;97455;-65
2022/04/03 08:41:12;;;;;;;2.30;1.72;;;;;;;2.31;52.86;100818.00;1725029;81;25888;-65
2022/04/03 08:43:43;;;;;;;4.28;1.85;;;;;;;2.50;52.73;100815.66;1724635;81;98564;-66
2022/04/03 08:46:09;;;;;;;4.90;1.40;;;;;;;2.76;52.75;100812.31;1747997;80;27368;-65
2022/04/03 08:48:43;;;;;;;5.95;1.40;;;;;;;3.01;52.42;100822.67;1755714;80;25851;-66
2022/04/03 08:51:09;;;;;;;4.28;1.50;;;;;;;2.97;50.39;100809.03;1721898;81;98332;-66
2022/04/03 08:53:38;;;;;;;2.72;1.30;;;;;;;2.83;50.96;100817.98;1750262;80;26516;-68
2022/04/03 08:56:05;;;;;;;6.50;1.50;;;;;;;2.80;49.91;100807.42;1750552;80;98600;-66
2022/04/03 08:58:32;;;;;;;9.53;3.52;;;;;;;2.76;49.83;100818.93;1774432;79;27368;-67
2022/04/03 09:00:58;;;;;;;5.42;1.50;;;;;;;2.71;49.85;100814.13;1781653;79;25820;-67
2022/04/03 09:03:25;;;;;;;4.72;1.82;;;;;;;2.75;49.17;100821.59;1778914;79;98401;-67
2022/04/03 09:06:11;;;;;;;3.12;1.17;;;;;;;2.69;49.36;100819.00;1777488;79;25796;-66
2022/04/03 09:08:38;;;;;;;2.20;1.70;;;;;;;2.69;49.23;100815.02;1722285;80;98336;-68
2022/04/03 09:11:07;;;;;;;3.27;1.67;;;;;;;2.80;48.92;100814.48;1700171;82;26936;-67
2022/04/03 09:13:35;;;;;;;2.75;1.60;;;;;;;2.80;48.77;100810.07;1731277;81;25776;-65
2022/04/03 09:16:00;;;;;;;5.72;1.30;;;;;;;2.94;48.87;100812.59;1730428;81;98138;-65
2022/04/03 09:18:47;;;;;;;2.52;1.42;;;;;;;3.09;48.43;100800.97;1729523;81;25840;-66
2022/04/03 09:21:27;;;;;;;4.37;1.62;;;;;;;3.28;48.57;100800.33;1662802;83;98419;-66
2022/04/03 09:24:12;;;;;;;3.72;1.25;;;;;;;3.40;47.85;100805.04;1626322;86;27470;-67
2022/04/03 09:26:43;;;;;;;2.47;1.25;;;;;;;3.50;48.05;100800.50;1654246;84;98453;-66
2022/04/03 09:29:17;;;;;;;2.02;1.42;;;;;;;3.49;47.26;100796.98;1652923;84;26467;-65
2022/04/03 09:31:48;;;;;;;4.53;2.15;;;;;;;3.51;47.43;100792.98;1649590;84;25882;-66
2022/04/03 09:34:17;;;;;;;2.85;1.50;;;;;;;3.46;46.23;100793.05;1623639;86;98256;-65
2022/04/03 09:36:56;;;;;;;3.75;1.72;;;;;;;3.31;46.49;100787.05;1630092;86;27485;-66
2022/04/03 09:39:27;;;;;;;2.70;1.52;;;;;;;3.24;46.18;100786.23;1683388;82;98268;-65
2022/04/03 09:42:02;;;;;;;6.60;2.02;;;;;;;3.15;45.91;100788.54;1696771;82;25867;-66
2022/04/03 09:44:39;;;;;;;7.60;2.67;;;;;;;3.19;45.50;100801.30;1689785;82;98873;-65
2022/04/03 09:47:30;;;;;;;5.80;1.75;;;;;;;3.22;45.92;100790.67;1667561;84;25873;-66
2022/04/03 09:50:06;;;;;;;3.40;1.95;;;;;;;3.26;45.31;100792.39;1663880;84;27456;-65
2022/04/03 09:52:45;;;;;;;4.10;1.82;;;;;;;3.23;45.55;100789.78;1638655;84;98272;-65
2022/04/03 09:55:29;;;;;;;3.70;1.70;;;;;;;3.33;45.69;100783.94;1670404;84;25831;-65
2022/04/03 09:58:04;;;;;;;4.80;2.52;;;;;;;3.44;45.09;100792.63;1673783;84;98441;-65
2022/04/03 10:00:41;;;;;;;2.92;1.70;;;;;;;3.46;45.23;100787.74;1617393;87;25874;-67
2022/04/03 10:03:13;;;;;;;9.05;2.25;;;;;;;3.52;45.26;100792.09;1609187;87;97455;-65
2022/04/03 10:05:42;;;;;;;2.10;1.70;;;;;;;3.62;44.96;100790.20;1627945;86;25599;-64
2022/04/03 10:08:12;;;;;;;3.75;2.00;;;;;;;3.62;44.31;100807.44;1701849;81;98481;-66
2022/04/03 10:10:41;;;;;;;5.10;2.20;;;;;;;3.58;44.71;100803.49;1699708;81;25750;-63
2022/04/03 10:13:10;;;;;;;4.92;1.85;;;;;;;3.55;44.38;100792.93;1673059;82;25405;-64
2022/04/03 10:15:35;;;;;;;2.42;1.70;;;;;;;3.50;44.03;100790.78;1704772;82;98359;-63
2022/04/03 10:18:04;;;;;;;3.98;1.75;;;;;;;3.56;44.15;100789.83;1705727;82;25768;-66
2022/04/03 10:20:34;;;;;;;5.92;1.85;;;;;;;3.59;44.18;100788.47;1699645;82;98459;-63
2022/04/03 10:23:11;;;;;;;3.05;1.50;;;;;;;3.54;43.87;100791.62;1700081;82;26092;-64
2022/04/03 10:25:44;;;;;;;4.72;1.75;;;;;;;3.54;43.70;100784.55;1698506;81;25752;-64
2022/04/03 10:28:11;;;;;;;8.08;1.60;;;;;;;3.57;43.72;100811.02;1727657;80;98435;-64
2022/04/03 10:30:44;;;;;;;5.83;1.50;;;;;;;3.55;43.72;100802.66;1675266;84;25795;-66
2022/04/03 10:33:23;;;;;;;7.10;1.70;;;;;;;3.57;43.56;100788.48;1734035;80;98355;-65
2022/04/03 10:36:08;;;;;;;6.05;1.57;;;;;;;3.58;43.57;100788.04;1700391;82;25809;-65
2022/04/03 10:38:48;;;;;;;5.90;2.20;;;;;;;3.65;43.64;100788.84;1647700;85;97644;-63
2022/04/03 10:41:36;;;;;;;3.83;2.33;;;;;;;3.78;43.67;100786.45;1641761;85;27445;-67
2022/04/03 10:44:23;;;;;;;2.83;1.40;;;;;;;4.02;43.17;100782.59;1658323;84;25768;-65
2022/04/03 10:47:12;;;;;;;4.33;1.98;;;;;;;4.15;41.66;100771.78;1665692;84;98289;-63
2022/04/03 10:50:00;;;;;;;3.40;1.90;;;;;;;4.08;42.39;100772.77;1709730;82;25795;-62
2022/04/03 10:52:40;;;;;;;10.55;1.87;;;;;;;4.16;42.66;100771.33;1715276;81;98351;-64
2022/04/03 10:55:22;;;;;;;6.05;2.20;;;;;;;4.36;42.43;100765.71;1707223;82;29481;-67
2022/04/03 10:57:52;;;;;;;6.00;2.27;;;;;;;4.33;42.44;100769.73;1719298;81;98422;-64
2022/04/03 11:00:27;;;;;;;5.40;2.10;;;;;;;4.35;42.03;100765.28;1722794;81;26409;-64
2022/04/03 11:03:00;;;;;;;4.28;1.72;;;;;;;4.24;41.93;100763.67;1696443;82;98498;-67
2022/04/03 11:05:32;;;;;;;5.60;1.50;;;;;;;4.30;41.65;100777.30;1699800;82;26087;-64
2022/04/03 11:08:06;;;;;;;4.97;1.60;;;;;;;4.23;41.58;100779.17;1700157;81;27471;-64
2022/04/03 11:10:59;;;;;;;4.62;2.45;;;;;;;4.21;41.60;100758.42;1704186;82;98385;-64
2022/04/03 11:13:37;;;;;;;7.78;2.00;;;;;;;4.19;41.19;100767.30;1701596;82;26545;-64
2022/04/03 11:16:11;;;;;;;11.90;1.87;;;;;;;4.23;41.36;100759.27;1725904;81;98297;-64
2022/04/03 11:18:43;;;;;;;6.45;1.57;;;;;;;4.45;40.99;100757.15;1735154;81;25851;-64
2022/04/03 11:21:26;;;;;;;2.15;1.60;;;;;;;4.62;40.76;100749.35;1729402;81;98573;-64
2022/04/03 11:24:12;;;;;;;3.98;1.92;;;;;;;4.66;40.78;100753.25;1731928;81;25824;-63
2022/04/03 11:26:40;;;;;;;4.12;2.17;;;;;;;4.74;40.39;100749.14;1735461;80;98459;-66
2022/04/03 11:29:09;;;;;;;3.72;1.82;;;;;;;4.72;39.96;100749.62;1738084;80;25794;-65
2022/04/03 11:31:36;;;;;;;6.20;2.67;;;;;;;4.62;39.50;100740.94;1733815;81;25820;-65
2022/04/03 11:34:03;;;;;;;38.13;3.40;;;;;;;4.63;39.70;100749.78;1725141;81;98335;-65